George Allen — WDF9749 — position and weather

sailwx.info

Track history (hours):
 
Tides and Currents Weather Stations Pressure Air Temp Water Temp Dewpoint Dewpoint Depression Visibility Wind Speed Wind Dir Waves Ship Positions

George Allen

Owner: Blessey Enterprises, Inc., Harahan, LA. More information available from US FCC via Universal Licensing System and Coast Guard Vessel Documentation Center.

Last reported at 2015-Feb-26 13:30 UTC. Time now 2015-Feb-28 23:04 UTC.
Position N 29°44' W 091°34'.

Length 25 m.

Type: Towing. MMSI: 367508440.

Date/timePositionNaut miles runAvg speedWind from/ knotsBaromVisibWave heightAir tempDewpointWater temp
2015-Feb-26 13:30N 29°44' W 091°34'6 5.9
2015-Feb-26 12:33N 29°41' W 091°29'6 5.7
2015-Feb-26 11:33N 29°39' W 091°23'6 5.6
2015-Feb-26 10:33N 29°39' W 091°16'5 5.3
2015-Feb-26 09:33N 29°41' W 091°10'3 3.3
2015-Feb-26 08:33N 29°39' W 091°07'4 4.1
2015-Feb-26 07:33N 29°37' W 091°03'4 4.4
2015-Feb-26 06:33N 29°36' W 090°58'54 3.0
2015-Feb-25 12:24N 29°54' W 089°59'1 1.6
2015-Feb-25 11:30N 29°55' W 089°58'1 0.7
2015-Feb-25 09:29N 29°56' W 089°57'  
2015-Feb-22 20:13N 29°54' W 089°59'9 4.0
2015-Feb-22 18:03N 29°47' W 090°04'50 3.4
2015-Feb-22 03:21N 29°37' W 091°01'4 5.3
2015-Feb-22 02:33N 29°38' W 091°06'4 4.3
2015-Feb-22 01:34N 29°41' W 091°10'3 3.3
2015-Feb-22 00:33N 29°41' W 091°13'6 5.5
2015-Feb-21 23:33N 29°38' W 091°19'6 5.3
2015-Feb-21 22:29N 29°39' W 091°25'4 4.7
2015-Feb-21 21:33N 29°42' W 091°30'5 4.5
2015-Feb-21 20:31N 29°44' W 091°34'  
Track history (hours):
 
Tides and Currents Weather Stations Pressure Air Temp Water Temp Dewpoint Dewpoint Depression Visibility Wind Speed Wind Dir Waves Ship Positions

George Allen

Owner: Blessey Enterprises, Inc., Harahan, LA. More information available from US FCC via Universal Licensing System and Coast Guard Vessel Documentation Center.

Last reported at 2015-Feb-26 13:30 UTC. Time now 2015-Feb-28 23:04 UTC.
Position N 29°44' W 091°34'.

Length 25 m.

Type: Towing. MMSI: 367508440.

Date/timePositionNaut miles runAvg speedWind from/ knotsBaromVisibWave heightAir tempDewpointWater temp
2015-Feb-26 13:30N 29°44' W 091°34'6 5.9
2015-Feb-26 12:33N 29°41' W 091°29'6 5.7
2015-Feb-26 11:33N 29°39' W 091°23'6 5.6
2015-Feb-26 10:33N 29°39' W 091°16'5 5.3
2015-Feb-26 09:33N 29°41' W 091°10'3 3.3
2015-Feb-26 08:33N 29°39' W 091°07'4 4.1
2015-Feb-26 07:33N 29°37' W 091°03'4 4.4
2015-Feb-26 06:33N 29°36' W 090°58'54 3.0
2015-Feb-25 12:24N 29°54' W 089°59'1 1.6
2015-Feb-25 11:30N 29°55' W 089°58'1 0.7
2015-Feb-25 09:29N 29°56' W 089°57'  
2015-Feb-22 20:13N 29°54' W 089°59'9 4.0
2015-Feb-22 18:03N 29°47' W 090°04'50 3.4
2015-Feb-22 03:21N 29°37' W 091°01'4 5.3
2015-Feb-22 02:33N 29°38' W 091°06'4 4.3
2015-Feb-22 01:34N 29°41' W 091°10'3 3.3
2015-Feb-22 00:33N 29°41' W 091°13'6 5.5
2015-Feb-21 23:33N 29°38' W 091°19'6 5.3
2015-Feb-21 22:29N 29°39' W 091°25'4 4.7
2015-Feb-21 21:33N 29°42' W 091°30'5 4.5
2015-Feb-21 20:31N 29°44' W 091°34'  

Dump ship's entire track history